< < Back
Terminal Aerodrome Forecast


Current Version              Previous Versions:   1  2  3  4  5  6  7  8  9  

Terminal Aerodrome Forecast

618
FTUS42 KMLB 241725
TAFMCO
TAF
KMCO 241725Z 2418/2518 21005KT P6SM SCT040
     FM241900 13008KT P6SM VCSH SCT045 BKN120
     FM250100 18006KT P6SM FEW040
     FM251500 21005KT P6SM SCT030=



Latest METAR

445
SAUS70 KWBC 242300 RRA
MTRMCO
METAR KMCO 242253Z 14009KT 10SM FEW050 FEW100 SCT250 33/22 A3002 RMK AO2
SLP164 CB DSNT NW-N T03330217


USA.gov is the U.S. government's official web portal to all federal, state and local government web resources and services.